KABR/ABR METAR and TAF weather

Enter ICAO airport designator
Station Type Date Time Source
KABR METAR 2019/06/26 17:53 UTC NOAA

KABR 261753Z AUTO 24009KT 10SM CLR 26/18 A2997 RMK AO2 SLP143 T02610178 10267 20167 55002


Station Type Date Time Source
KABR Decoded METAR 2019/06/26 17:53 UTC NOAA

ABERDEEN REGIONAL AIRPORT, SD, United States (KABR) 45-27N 098-25W 400M
Jun 26, 2019 - 01:53 PM EDT / 2019.06.26 1753 UTC
Wind: from the WSW (240 degrees) at 10 MPH (9 KT):0
Visibility: 10 mile(s):0
Sky conditions: clear
Temperature: 79.0 F (26.1 C)
Dew Point: 64.0 F (17.8 C)
Relative Humidity: 60%
Pressure (altimeter): 29.97 in. Hg (1014 hPa)
Pressure tendency: 0.01 inches (0.2 hPa) lower than three hours ago
ob: KABR 261753Z AUTO 24009KT 10SM CLR 26/18 A2997 RMK AO2 SLP143 T02610178 10267 20167 55002
cycle: 18

Station Type Date Time Source
KABR TAF 2019/06/26 18:36 UTC NOAA

TAF KABR 261735Z 2618/2718 20009KT P6SM FEW050 FEW200
FM270500 08005KT P6SM BKN200
FM270700 08006KT P6SM VCSH OVC150
FM271400 05008KT P6SM SCT040

Example: see airport list